createdAt,value
2023-04-13T00:00:13.139Z,8.00
2023-04-13T00:10:12.147Z,8.10
2023-04-13T00:20:12.960Z,8.40
2023-04-13T00:30:12.161Z,8.50
2023-04-13T00:40:11.272Z,8.60
2023-04-13T00:50:10.110Z,8.70
2023-04-13T01:00:09.320Z,8.70
2023-04-13T01:10:09.103Z,8.80
2023-04-13T01:20:10.392Z,8.90
2023-04-13T01:30:11.538Z,8.90
2023-04-13T01:40:12.852Z,8.90
2023-04-13T01:50:20.960Z,9.00
2023-04-13T02:00:23.969Z,9.00
2023-04-13T02:10:23.854Z,9.00
2023-04-13T02:20:23.568Z,9.00
2023-04-13T02:30:22.203Z,9.00
2023-04-13T02:40:21.189Z,9.00
2023-04-13T02:50:22.248Z,9.10
2023-04-13T03:00:23.171Z,9.10
2023-04-13T03:10:23.017Z,9.10
2023-04-13T03:20:27.968Z,9.10
2023-04-13T03:30:29.171Z,9.10
2023-04-13T03:40:28.951Z,9.10
2023-04-13T03:50:29.301Z,9.20
2023-04-13T04:00:33.120Z,9.20
2023-04-13T04:10:32.650Z,9.20
2023-04-13T04:20:32.016Z,9.20
2023-04-13T04:30:33.176Z,9.10
2023-04-13T04:40:34.354Z,9.00
2023-04-13T04:50:35.315Z,8.90
2023-04-13T05:00:39.564Z,9.10
2023-04-13T05:10:38.213Z,9.10
2023-04-13T05:20:39.752Z,9.10
2023-04-13T05:30:38.672Z,9.10
2023-04-13T05:40:37.471Z,9.20
2023-04-13T05:50:36.691Z,9.30
2023-04-13T06:00:37.367Z,9.40
2023-04-13T06:10:36.328Z,9.30
2023-04-13T06:20:35.571Z,9.40
2023-04-13T06:30:36.170Z,9.70
2023-04-13T06:40:37.081Z,10.00
2023-04-13T06:50:37.554Z,10.10
2023-04-13T07:00:36.812Z,10.40
2023-04-13T07:10:39.293Z,10.70
2023-04-13T07:20:39.762Z,11.10
2023-04-13T07:30:38.583Z,11.50
2023-04-13T07:40:39.096Z,11.60
2023-04-13T07:50:38.520Z,11.80
2023-04-13T08:00:37.743Z,11.20
2023-04-13T08:10:37.803Z,11.10
2023-04-13T08:20:37.480Z,11.10
2023-04-13T08:30:37.971Z,11.40
2023-04-13T08:40:38.015Z,11.50
2023-04-13T08:50:37.856Z,12.10
2023-04-13T09:00:36.979Z,11.80
2023-04-13T09:10:36.645Z,12.40
2023-04-13T09:20:36.477Z,12.60
2023-04-13T09:30:35.345Z,12.60
2023-04-13T09:40:36.734Z,13.30
2023-04-13T09:50:36.473Z,13.00
2023-04-13T10:00:35.360Z,13.80
2023-04-13T10:10:34.585Z,14.30
2023-04-13T10:20:33.335Z,14.60
2023-04-13T10:30:32.572Z,15.10
2023-04-13T10:40:31.335Z,15.40
2023-04-13T10:50:30.777Z,14.30
2023-04-13T11:00:42.240Z,13.70
2023-04-13T11:10:31.105Z,13.30
2023-04-13T11:20:30.547Z,13.20
2023-04-13T11:30:29.410Z,14.40
2023-04-13T11:40:28.383Z,15.30
2023-04-13T11:50:27.498Z,14.80
2023-04-13T12:00:26.831Z,14.90
2023-04-13T12:10:36.420Z,15.00
2023-04-13T12:20:27.826Z,14.50
2023-04-13T12:30:26.957Z,15.50
2023-04-13T12:40:26.197Z,16.20
2023-04-13T12:50:26.069Z,16.30
2023-04-13T13:00:24.426Z,16.30
2023-04-13T13:10:29.494Z,16.30
2023-04-13T13:20:24.500Z,15.60
2023-04-13T13:30:24.888Z,16.70
2023-04-13T13:40:23.585Z,16.50
2023-04-13T13:50:23.402Z,17.50
2023-04-13T14:00:22.908Z,18.30
2023-04-13T14:10:21.556Z,17.90
2023-04-13T14:20:20.682Z,17.30
2023-04-13T14:30:19.727Z,17.60
2023-04-13T14:40:20.482Z,17.40
2023-04-13T14:50:19.855Z,16.90
2023-04-13T15:00:23.381Z,16.70
2023-04-13T15:10:22.594Z,16.90
2023-04-13T15:20:21.719Z,17.10
2023-04-13T15:30:20.835Z,17.00
2023-04-13T15:40:19.569Z,17.20
2023-04-13T15:50:19.383Z,16.90
2023-04-13T16:00:18.798Z,16.90
2023-04-13T16:10:18.695Z,16.80
2023-04-13T16:20:19.280Z,17.00
2023-04-13T16:30:21.854Z,17.00
2023-04-13T16:40:21.374Z,17.40
2023-04-13T16:50:20.790Z,17.90
2023-04-13T17:00:19.937Z,17.30
2023-04-13T17:10:18.819Z,18.60
2023-04-13T17:20:17.989Z,17.40
2023-04-13T17:30:16.709Z,18.70
2023-04-13T17:40:15.802Z,18.70
2023-04-13T17:50:15.098Z,17.20
2023-04-13T18:00:14.160Z,16.00
2023-04-13T18:10:12.653Z,15.10
2023-04-13T18:20:11.817Z,14.40
2023-04-13T18:30:10.890Z,13.90
2023-04-13T18:40:09.843Z,13.50
2023-04-13T18:50:08.931Z,13.00
2023-04-13T19:00:09.984Z,12.60
2023-04-13T19:10:08.953Z,12.10
2023-04-13T19:20:10.133Z,11.80
2023-04-13T19:30:09.787Z,11.40
2023-04-13T19:40:09.657Z,11.10
2023-04-13T19:50:08.832Z,10.80
2023-04-13T20:00:10.117Z,10.60
2023-04-13T20:10:09.092Z,10.30
2023-04-13T20:20:09.615Z,10.00
2023-04-13T20:30:09.328Z,9.80
2023-04-13T20:40:10.259Z,9.70
2023-04-13T20:50:09.849Z,10.00
2023-04-13T21:00:11.459Z,10.60
2023-04-13T21:10:11.835Z,10.70
2023-04-13T21:20:10.972Z,10.80
2023-04-13T21:30:09.778Z,10.70
2023-04-13T21:40:08.936Z,10.60
2023-04-13T21:50:07.927Z,10.50
2023-04-13T22:00:09.979Z,10.50
2023-04-13T22:10:08.858Z,10.40
2023-04-13T22:20:07.933Z,10.40
2023-04-13T22:30:06.919Z,10.30
2023-04-13T22:40:05.804Z,10.20
2023-04-13T22:50:04.843Z,9.90
2023-04-13T23:00:03.929Z,9.50
2023-04-13T23:10:02.941Z,9.30
2023-04-13T23:20:06.567Z,9.00
2023-04-13T23:30:06.052Z,8.80
2023-04-13T23:40:04.963Z,8.50
2023-04-13T23:50:04.081Z,8.30
